createdAt,value
2018-08-28T00:00:28.509Z,16.70
2018-08-28T00:02:56.082Z,16.80
2018-08-28T00:05:23.624Z,16.70
2018-08-28T00:07:51.184Z,16.70
2018-08-28T00:10:18.809Z,16.80
2018-08-28T00:12:46.316Z,16.80
2018-08-28T00:15:13.864Z,16.70
2018-08-28T00:17:41.653Z,16.70
2018-08-28T00:20:09.191Z,16.70
2018-08-28T00:22:36.743Z,16.70
2018-08-28T00:25:04.329Z,16.70
2018-08-28T00:27:31.876Z,16.70
2018-08-28T00:29:59.446Z,16.70
2018-08-28T00:32:26.963Z,16.70
2018-08-28T00:34:54.506Z,16.70
2018-08-28T00:37:22.055Z,16.70
2018-08-28T00:39:49.605Z,16.70
2018-08-28T00:42:17.178Z,16.70
2018-08-28T00:44:44.718Z,16.70
2018-08-28T00:47:12.258Z,16.70
2018-08-28T00:49:39.857Z,16.70
2018-08-28T00:52:07.445Z,16.80
2018-08-28T00:54:34.973Z,16.70
2018-08-28T00:57:02.492Z,16.80
2018-08-28T00:59:30.052Z,16.80
2018-08-28T01:01:57.603Z,16.80
2018-08-28T01:04:25.117Z,16.80
2018-08-28T01:06:52.651Z,16.80
2018-08-28T01:09:20.208Z,16.70
2018-08-28T01:11:47.751Z,16.70
2018-08-28T01:14:15.285Z,16.70
2018-08-28T01:16:42.821Z,16.70
2018-08-28T01:19:10.324Z,16.70
2018-08-28T01:21:37.931Z,16.70
2018-08-28T01:24:05.603Z,16.70
2018-08-28T01:26:33.134Z,16.70
2018-08-28T01:29:00.750Z,16.70
2018-08-28T01:31:28.388Z,16.70
2018-08-28T01:33:55.906Z,16.70
2018-08-28T01:36:23.464Z,16.80
2018-08-28T01:38:50.954Z,16.80
2018-08-28T01:41:18.488Z,16.80
2018-08-28T01:43:46.038Z,16.80
2018-08-28T01:46:13.570Z,16.90
2018-08-28T01:48:41.082Z,16.90
2018-08-28T01:51:08.640Z,16.90
2018-08-28T01:53:36.222Z,16.90
2018-08-28T01:56:03.729Z,16.90
2018-08-28T01:58:31.320Z,16.90
2018-08-28T02:00:58.852Z,16.80
2018-08-28T02:03:26.452Z,16.80
2018-08-28T02:05:54.008Z,16.80
2018-08-28T02:08:21.500Z,16.80
2018-08-28T02:10:49.030Z,16.80
2018-08-28T02:13:16.578Z,16.80
2018-08-28T02:15:44.108Z,16.80
2018-08-28T02:18:11.606Z,16.80
2018-08-28T02:20:39.151Z,16.80
2018-08-28T02:23:06.738Z,16.80
2018-08-28T02:25:34.300Z,16.80
2018-08-28T02:28:01.843Z,16.80
2018-08-28T02:30:29.386Z,16.80
2018-08-28T02:32:56.888Z,16.80
2018-08-28T02:35:24.605Z,16.80
2018-08-28T02:37:52.094Z,16.70
2018-08-28T02:40:19.634Z,16.80
2018-08-28T02:42:47.178Z,16.80
2018-08-28T02:45:14.746Z,16.80
2018-08-28T02:47:42.274Z,16.70
2018-08-28T02:50:09.829Z,16.70
2018-08-28T02:52:37.358Z,16.70
2018-08-28T02:55:04.912Z,16.70
2018-08-28T02:57:32.518Z,16.80
2018-08-28T03:00:00.004Z,16.70
2018-08-28T03:02:27.531Z,16.70
2018-08-28T03:04:55.074Z,16.70
2018-08-28T03:07:22.612Z,16.70
2018-08-28T03:09:50.126Z,16.70
2018-08-28T03:12:17.705Z,16.70
2018-08-28T03:14:45.208Z,16.70
2018-08-28T03:17:12.744Z,16.70
2018-08-28T03:19:40.281Z,16.70
2018-08-28T03:22:07.903Z,16.70
2018-08-28T03:24:35.447Z,16.70
2018-08-28T03:27:03.020Z,16.60
2018-08-28T03:29:30.540Z,16.60
2018-08-28T03:31:58.048Z,16.50
2018-08-28T03:34:25.596Z,16.50
2018-08-28T03:36:53.240Z,16.50
2018-08-28T03:39:20.790Z,16.50
2018-08-28T03:41:48.426Z,16.50
2018-08-28T03:44:15.971Z,16.60
2018-08-28T03:46:43.520Z,16.60
2018-08-28T03:49:11.061Z,16.60
2018-08-28T03:51:38.698Z,16.60
2018-08-28T03:54:06.224Z,16.60
2018-08-28T03:56:33.796Z,16.60
2018-08-28T03:59:01.336Z,16.60
2018-08-28T04:01:28.854Z,16.60
2018-08-28T04:03:56.408Z,16.60
2018-08-28T04:06:23.947Z,16.50
2018-08-28T04:08:51.484Z,16.50
2018-08-28T04:11:19.273Z,16.50
2018-08-28T04:13:46.816Z,16.50
2018-08-28T04:16:14.333Z,16.50
2018-08-28T04:18:41.881Z,16.50
2018-08-28T04:21:09.383Z,16.50
2018-08-28T04:23:36.888Z,16.50
2018-08-28T04:26:04.541Z,16.40
2018-08-28T04:28:32.064Z,16.40
2018-08-28T04:30:59.685Z,16.50
2018-08-28T04:33:27.149Z,16.40
2018-08-28T04:35:54.690Z,16.40
2018-08-28T04:38:22.286Z,16.40
2018-08-28T04:40:49.825Z,16.40
2018-08-28T04:43:17.359Z,16.40
2018-08-28T04:45:44.866Z,16.40
2018-08-28T04:48:12.456Z,16.40
2018-08-28T04:50:40.023Z,16.40
2018-08-28T04:53:07.568Z,16.40
2018-08-28T04:55:35.117Z,16.40
2018-08-28T04:58:02.667Z,16.30
2018-08-28T05:00:30.246Z,16.40
2018-08-28T05:02:57.824Z,16.30
2018-08-28T05:05:25.392Z,16.30
2018-08-28T05:07:52.944Z,16.30
2018-08-28T05:10:20.517Z,16.30
2018-08-28T05:12:48.029Z,16.40
2018-08-28T05:15:15.554Z,16.40
2018-08-28T05:17:43.138Z,16.40
2018-08-28T05:20:10.707Z,16.40
2018-08-28T05:22:38.226Z,16.50
2018-08-28T05:25:05.943Z,16.40
2018-08-28T05:27:33.518Z,16.40
2018-08-28T05:30:01.085Z,16.50
2018-08-28T05:32:28.678Z,16.50
2018-08-28T05:34:56.344Z,16.50
2018-08-28T05:37:23.956Z,16.50
2018-08-28T05:39:51.490Z,16.50
2018-08-28T05:42:19.048Z,16.50
2018-08-28T05:44:46.616Z,16.50
2018-08-28T05:47:14.253Z,16.60
2018-08-28T05:49:41.970Z,16.60
2018-08-28T05:52:09.511Z,16.50
2018-08-28T05:54:37.076Z,16.50
2018-08-28T05:57:04.709Z,16.50
2018-08-28T05:59:32.284Z,16.60
2018-08-28T06:01:59.960Z,16.70
2018-08-28T06:04:27.534Z,16.70
2018-08-28T06:06:55.184Z,16.80
2018-08-28T06:09:22.744Z,16.80
2018-08-28T06:11:50.404Z,16.90
2018-08-28T06:14:17.926Z,16.90
2018-08-28T06:16:45.516Z,16.90
2018-08-28T06:19:13.346Z,16.90
2018-08-28T06:21:40.962Z,17.00
2018-08-28T06:24:08.575Z,17.00
2018-08-28T06:26:36.277Z,17.00
2018-08-28T06:29:04.077Z,17.00
2018-08-28T06:31:31.674Z,17.00
2018-08-28T06:33:59.306Z,17.00
2018-08-28T06:36:26.843Z,17.00
2018-08-28T06:38:54.400Z,17.10
2018-08-28T06:41:21.927Z,17.10
2018-08-28T06:43:49.515Z,17.10
2018-08-28T06:46:17.039Z,17.10
2018-08-28T06:48:44.600Z,17.10
2018-08-28T06:51:12.163Z,17.10
2018-08-28T06:53:39.753Z,17.10
2018-08-28T06:56:07.367Z,17.10
2018-08-28T06:58:34.929Z,17.10
2018-08-28T07:01:02.531Z,17.20
2018-08-28T07:03:30.134Z,17.20
2018-08-28T07:05:57.745Z,17.20
2018-08-28T07:08:25.351Z,17.30
2018-08-28T07:10:52.975Z,17.30
2018-08-28T07:13:20.525Z,17.40
2018-08-28T07:15:48.101Z,17.40
2018-08-28T07:18:15.637Z,17.30
2018-08-28T07:20:43.205Z,17.30
2018-08-28T07:23:10.866Z,17.30
2018-08-28T07:25:38.494Z,17.50
2018-08-28T07:28:05.987Z,17.40
2018-08-28T07:30:33.597Z,17.50
2018-08-28T07:33:01.133Z,17.60
2018-08-28T07:35:28.821Z,17.60
2018-08-28T07:37:56.401Z,17.70
2018-08-28T07:40:24.067Z,17.80
2018-08-28T07:42:51.691Z,17.90
2018-08-28T07:45:19.319Z,17.90
2018-08-28T07:47:47.353Z,18.00
2018-08-28T07:50:14.885Z,18.20
2018-08-28T07:52:42.560Z,18.30
2018-08-28T07:55:10.193Z,18.30
2018-08-28T07:57:37.812Z,18.40
2018-08-28T08:00:05.780Z,18.40
2018-08-28T08:02:33.491Z,18.50
2018-08-28T08:05:01.124Z,18.70
2018-08-28T08:07:28.741Z,18.80
2018-08-28T08:09:56.381Z,18.90
2018-08-28T08:12:23.997Z,19.00
2018-08-28T08:14:51.722Z,19.10
2018-08-28T08:17:19.369Z,19.00
2018-08-28T08:19:46.957Z,19.10
2018-08-28T08:22:14.718Z,19.20
2018-08-28T08:24:42.730Z,19.30
2018-08-28T08:27:10.329Z,19.30
2018-08-28T08:29:37.942Z,19.40
2018-08-28T08:32:05.851Z,19.50
2018-08-28T08:34:33.550Z,19.60
2018-08-28T08:37:01.139Z,19.60
2018-08-28T08:39:28.756Z,19.70
2018-08-28T08:41:56.409Z,19.80
2018-08-28T08:44:23.941Z,19.90
2018-08-28T08:46:51.606Z,19.90
2018-08-28T08:49:19.169Z,20.10
2018-08-28T08:51:46.821Z,20.10
2018-08-28T08:54:14.417Z,20.10
2018-08-28T08:56:41.992Z,20.20
2018-08-28T08:59:09.576Z,20.20
2018-08-28T09:01:37.225Z,20.40
2018-08-28T09:04:05.239Z,20.60
2018-08-28T09:06:32.848Z,20.80
2018-08-28T09:09:00.456Z,20.90
2018-08-28T09:11:28.042Z,20.90
2018-08-28T09:13:55.602Z,21.00
2018-08-28T09:16:23.199Z,21.00
2018-08-28T09:18:50.790Z,21.00
2018-08-28T09:21:18.347Z,21.10
2018-08-28T09:23:45.978Z,21.20
2018-08-28T09:26:13.550Z,21.20
2018-08-28T09:28:41.173Z,21.20
2018-08-28T09:31:08.850Z,21.10
2018-08-28T09:33:36.455Z,21.10
2018-08-28T09:36:04.040Z,21.30
2018-08-28T09:38:31.730Z,21.40
2018-08-28T09:40:59.200Z,21.50
2018-08-28T09:43:26.764Z,21.60
2018-08-28T09:45:54.346Z,21.50
2018-08-28T09:48:21.933Z,21.60
2018-08-28T09:50:49.521Z,21.70
2018-08-28T09:53:17.099Z,21.80
2018-08-28T09:55:44.700Z,21.70
2018-08-28T09:58:12.221Z,21.80
2018-08-28T10:00:45.338Z,21.80
2018-08-28T10:03:12.964Z,21.80
2018-08-28T10:05:40.513Z,21.90
2018-08-28T10:08:08.907Z,22.10
2018-08-28T10:10:36.396Z,22.00
2018-08-28T10:13:03.972Z,22.10
2018-08-28T10:15:31.530Z,22.10
2018-08-28T10:17:59.035Z,22.00
2018-08-28T10:20:26.557Z,21.90
2018-08-28T10:22:54.163Z,21.90
2018-08-28T10:25:21.686Z,21.70
2018-08-28T10:27:49.205Z,21.80
2018-08-28T10:30:16.846Z,21.70
2018-08-28T10:32:44.317Z,21.50
2018-08-28T10:35:11.863Z,21.50
2018-08-28T10:37:39.409Z,21.70
2018-08-28T10:40:06.993Z,21.80
2018-08-28T10:42:34.511Z,21.70
2018-08-28T10:45:02.057Z,21.70
2018-08-28T10:47:29.777Z,21.80
2018-08-28T10:49:57.304Z,22.00
2018-08-28T10:52:24.883Z,22.10
2018-08-28T10:54:52.458Z,22.10
2018-08-28T10:57:20.013Z,22.00
2018-08-28T10:59:47.873Z,22.10
2018-08-28T11:02:15.493Z,22.10
2018-08-28T11:04:43.174Z,22.10
2018-08-28T11:07:10.627Z,22.30
2018-08-28T11:09:38.238Z,22.30
2018-08-28T11:12:05.891Z,22.30
2018-08-28T11:14:33.466Z,22.20
2018-08-28T11:17:01.192Z,22.00
2018-08-28T11:19:28.784Z,22.00
2018-08-28T11:21:56.376Z,22.00
2018-08-28T11:24:24.002Z,22.10
2018-08-28T11:26:51.576Z,22.10
2018-08-28T11:29:19.160Z,22.10
2018-08-28T11:31:46.729Z,22.10
2018-08-28T11:34:14.281Z,22.20
2018-08-28T11:36:41.861Z,22.40
2018-08-28T11:39:09.435Z,22.80
2018-08-28T11:41:37.281Z,23.00
2018-08-28T11:44:04.855Z,23.50
2018-08-28T11:46:32.532Z,23.80
2018-08-28T11:49:00.150Z,23.70
2018-08-28T11:51:28.011Z,23.70
2018-08-28T11:53:55.744Z,23.60
2018-08-28T11:56:23.306Z,23.50
2018-08-28T11:58:50.868Z,23.50
2018-08-28T12:01:18.447Z,23.40
2018-08-28T12:03:46.013Z,23.40
2018-08-28T12:06:13.592Z,23.40
2018-08-28T12:08:41.248Z,23.30
2018-08-28T12:11:08.833Z,23.30
2018-08-28T12:13:36.423Z,23.20
2018-08-28T12:16:04.031Z,23.20
2018-08-28T12:18:31.630Z,23.30
2018-08-28T12:20:59.262Z,23.30
2018-08-28T12:23:26.738Z,23.50
2018-08-28T12:25:54.313Z,23.30
2018-08-28T12:28:21.842Z,23.60
2018-08-28T12:30:49.369Z,23.70
2018-08-28T12:33:16.928Z,23.60
2018-08-28T12:35:44.468Z,23.60
2018-08-28T12:38:12.035Z,23.80
2018-08-28T12:40:39.663Z,23.60
2018-08-28T12:43:07.203Z,23.70
2018-08-28T12:45:34.723Z,23.60
2018-08-28T12:48:02.212Z,23.60
2018-08-28T12:50:29.737Z,23.60
2018-08-28T12:52:57.234Z,23.50
2018-08-28T12:55:24.763Z,23.60
2018-08-28T12:57:52.283Z,23.40
2018-08-28T13:00:19.842Z,23.50
2018-08-28T13:02:47.388Z,23.60
2018-08-28T13:05:14.940Z,23.60
2018-08-28T13:07:42.506Z,23.50
2018-08-28T13:10:10.126Z,23.50
2018-08-28T13:12:37.703Z,23.90
2018-08-28T13:15:05.648Z,23.80
2018-08-28T13:17:33.196Z,24.00
2018-08-28T13:20:00.764Z,24.00
2018-08-28T13:22:28.329Z,24.10
2018-08-28T13:24:55.886Z,24.10
2018-08-28T13:27:23.449Z,24.10
2018-08-28T13:29:51.028Z,24.30
2018-08-28T13:32:18.581Z,24.20
2018-08-28T13:34:46.110Z,24.10
2018-08-28T13:37:13.701Z,24.00
2018-08-28T13:39:41.273Z,24.10
2018-08-28T13:42:08.818Z,24.50
2018-08-28T13:44:36.439Z,24.80
2018-08-28T13:47:04.119Z,25.10
2018-08-28T13:49:31.606Z,25.40
2018-08-28T13:51:59.250Z,25.40
2018-08-28T13:54:26.947Z,25.80
2018-08-28T13:56:54.451Z,26.10
2018-08-28T13:59:22.008Z,26.20
2018-08-28T14:01:49.592Z,26.20
2018-08-28T14:04:17.120Z,25.80
2018-08-28T14:06:44.732Z,25.60
2018-08-28T14:09:12.258Z,25.70
2018-08-28T14:11:39.848Z,26.00
2018-08-28T14:14:07.460Z,26.40
2018-08-28T14:16:35.007Z,26.80
2018-08-28T14:19:02.586Z,27.00
2018-08-28T14:21:30.212Z,27.60
2018-08-28T14:23:57.864Z,28.50
2018-08-28T14:26:25.501Z,29.00
2018-08-28T14:28:53.437Z,29.30
2018-08-28T14:31:20.991Z,29.30
2018-08-28T14:33:48.516Z,29.40
2018-08-28T14:36:16.073Z,29.80
2018-08-28T14:38:43.614Z,30.50
2018-08-28T14:41:11.509Z,30.90
2018-08-28T14:43:39.122Z,31.20
2018-08-28T14:46:07.158Z,31.40
2018-08-28T14:48:34.728Z,31.10
2018-08-28T14:51:02.342Z,30.80
2018-08-28T14:53:29.900Z,30.90
2018-08-28T14:55:57.450Z,31.10
2018-08-28T14:58:25.083Z,31.00
2018-08-28T15:00:52.677Z,31.50
2018-08-28T15:03:20.218Z,31.90
2018-08-28T15:05:47.817Z,32.10
2018-08-28T15:08:15.480Z,31.90
2018-08-28T15:10:43.037Z,31.80
2018-08-28T15:13:10.684Z,31.40
2018-08-28T15:15:38.233Z,31.40
2018-08-28T15:18:05.821Z,31.60
2018-08-28T15:20:33.393Z,31.30
2018-08-28T15:23:01.026Z,30.90
2018-08-28T15:25:28.567Z,31.10
2018-08-28T15:27:56.153Z,30.80
2018-08-28T15:30:23.792Z,31.20
2018-08-28T15:32:51.451Z,31.60
2018-08-28T15:35:19.034Z,31.50
2018-08-28T15:37:46.604Z,32.00
2018-08-28T15:40:14.174Z,32.90
2018-08-28T15:42:41.794Z,33.30
2018-08-28T15:45:09.392Z,33.60
2018-08-28T15:47:36.968Z,33.80
2018-08-28T15:50:04.646Z,34.00
2018-08-28T15:52:32.152Z,34.40
2018-08-28T15:54:59.683Z,34.50
2018-08-28T15:57:27.272Z,34.10
2018-08-28T15:59:54.877Z,33.40
2018-08-28T16:02:22.531Z,32.60
2018-08-28T16:04:50.217Z,33.00
2018-08-28T16:07:17.770Z,33.20
2018-08-28T16:09:45.288Z,33.50
2018-08-28T16:12:12.853Z,33.80
2018-08-28T16:14:40.381Z,33.90
2018-08-28T16:17:07.877Z,34.10
2018-08-28T16:19:35.391Z,33.50
2018-08-28T16:22:03.823Z,33.70
2018-08-28T16:24:31.360Z,33.50
2018-08-28T16:26:58.933Z,33.80
2018-08-28T16:29:26.518Z,33.70
2018-08-28T16:31:54.044Z,33.50
2018-08-28T16:34:21.589Z,33.30
2018-08-28T16:36:49.153Z,32.80
2018-08-28T16:39:16.781Z,32.90
2018-08-28T16:41:44.371Z,33.00
2018-08-28T16:44:12.004Z,32.70
2018-08-28T16:46:39.658Z,33.20
2018-08-28T16:49:07.181Z,33.00
2018-08-28T16:51:34.717Z,32.70
2018-08-28T16:54:02.275Z,32.60
2018-08-28T16:56:29.833Z,32.30
2018-08-28T16:58:57.335Z,32.60
2018-08-28T17:01:25.044Z,32.90
2018-08-28T17:03:52.577Z,33.10
2018-08-28T17:06:20.151Z,33.20
2018-08-28T17:08:47.725Z,33.40
2018-08-28T17:11:15.257Z,33.10
2018-08-28T17:13:42.797Z,33.20
2018-08-28T17:16:10.345Z,33.00
2018-08-28T17:18:37.963Z,32.90
2018-08-28T17:21:05.540Z,32.90
2018-08-28T17:23:33.075Z,32.60
2018-08-28T17:26:00.641Z,32.50
2018-08-28T17:28:28.179Z,32.20
2018-08-28T17:30:55.763Z,31.40
2018-08-28T17:33:23.518Z,30.50
2018-08-28T17:35:51.066Z,29.70
2018-08-28T17:38:18.659Z,29.10
2018-08-28T17:40:46.293Z,28.70
2018-08-28T17:43:13.843Z,28.40
2018-08-28T17:45:41.437Z,28.00
2018-08-28T17:48:09.029Z,27.60
2018-08-28T17:50:36.597Z,27.20
2018-08-28T17:53:04.161Z,26.90
2018-08-28T17:55:31.914Z,26.50
2018-08-28T17:57:59.471Z,26.10
2018-08-28T18:00:27.029Z,25.70
2018-08-28T18:02:54.638Z,25.40
2018-08-28T18:05:22.329Z,25.20
2018-08-28T18:07:50.008Z,24.90
2018-08-28T18:10:17.598Z,24.60
2018-08-28T18:12:45.162Z,24.20
2018-08-28T18:15:12.765Z,24.00
2018-08-28T18:17:40.373Z,23.60
2018-08-28T18:20:08.010Z,23.40
2018-08-28T18:22:35.654Z,23.20
2018-08-28T18:25:03.282Z,22.90
2018-08-28T18:27:30.853Z,22.70
2018-08-28T18:29:58.393Z,22.50
2018-08-28T18:32:26.004Z,22.30
2018-08-28T18:34:53.600Z,22.10
2018-08-28T18:37:21.246Z,21.90
2018-08-28T18:39:49.248Z,21.90
2018-08-28T18:42:16.886Z,21.70
2018-08-28T18:44:44.493Z,21.60
2018-08-28T18:47:12.102Z,21.50
2018-08-28T18:49:39.733Z,21.30
2018-08-28T18:52:07.306Z,21.10
2018-08-28T18:54:34.889Z,21.00
2018-08-28T18:57:02.450Z,20.90
2018-08-28T18:59:30.018Z,20.80
2018-08-28T19:01:57.704Z,20.70
2018-08-28T19:04:25.294Z,20.50
2018-08-28T19:06:52.831Z,20.50
2018-08-28T19:09:20.472Z,20.40
2018-08-28T19:11:48.266Z,20.20
2018-08-28T19:14:15.877Z,20.10
2018-08-28T19:16:43.464Z,20.10
2018-08-28T19:19:11.400Z,20.00
2018-08-28T19:21:38.992Z,19.90
2018-08-28T19:24:06.996Z,19.80
2018-08-28T19:26:34.585Z,19.60
2018-08-28T19:29:02.202Z,19.70
2018-08-28T19:31:29.842Z,19.50
2018-08-28T19:33:57.396Z,19.40
2018-08-28T19:36:25.036Z,19.30
2018-08-28T19:38:52.622Z,19.20
2018-08-28T19:41:20.190Z,19.20
2018-08-28T19:43:48.506Z,19.10
2018-08-28T19:46:16.082Z,19.10
2018-08-28T19:48:43.604Z,18.90
2018-08-28T19:51:11.209Z,18.90
2018-08-28T19:53:38.812Z,18.80
2018-08-28T19:56:06.368Z,18.70
2018-08-28T19:58:33.914Z,18.70
2018-08-28T20:01:01.538Z,18.60
2018-08-28T20:03:29.159Z,18.60
2018-08-28T20:05:56.731Z,18.50
2018-08-28T20:08:24.284Z,18.40
2018-08-28T20:10:52.212Z,18.40
2018-08-28T20:13:19.856Z,18.40
2018-08-28T20:15:47.439Z,18.30
2018-08-28T20:18:15.065Z,18.10
2018-08-28T20:20:42.740Z,18.00
2018-08-28T20:23:10.261Z,18.00
2018-08-28T20:25:37.834Z,18.00
2018-08-28T20:28:05.546Z,18.00
2018-08-28T20:30:33.178Z,17.90
2018-08-28T20:33:00.840Z,17.80
2018-08-28T20:35:28.426Z,17.80
2018-08-28T20:37:56.120Z,17.70
2018-08-28T20:40:23.733Z,17.70
2018-08-28T20:42:51.356Z,17.70
2018-08-28T20:45:18.943Z,17.60
2018-08-28T20:47:46.580Z,17.50
2018-08-28T20:50:14.448Z,17.30
2018-08-28T20:52:42.146Z,17.20
2018-08-28T20:55:10.015Z,17.20
2018-08-28T20:57:37.703Z,17.30
2018-08-28T21:00:05.913Z,17.30
2018-08-28T21:02:33.643Z,17.30
2018-08-28T21:05:01.233Z,17.30
2018-08-28T21:07:28.783Z,17.30
2018-08-28T21:09:56.454Z,17.20
2018-08-28T21:12:24.174Z,17.20
2018-08-28T21:14:51.787Z,17.20
2018-08-28T21:17:19.390Z,17.20
2018-08-28T21:19:46.937Z,17.10
2018-08-28T21:22:14.626Z,17.10
2018-08-28T21:24:42.327Z,17.00
2018-08-28T21:27:10.076Z,17.00
2018-08-28T21:29:37.644Z,16.90
2018-08-28T21:32:05.289Z,16.90
2018-08-28T21:34:32.845Z,16.80
2018-08-28T21:37:00.747Z,16.80
2018-08-28T21:39:28.484Z,16.80
2018-08-28T21:41:56.142Z,16.80
2018-08-28T21:44:23.928Z,16.80
2018-08-28T21:46:51.448Z,16.80
2018-08-28T21:49:18.989Z,16.80
2018-08-28T21:51:46.554Z,16.70
2018-08-28T21:54:14.127Z,16.70
2018-08-28T21:56:41.686Z,16.70
2018-08-28T21:59:09.267Z,16.60
2018-08-28T22:01:36.847Z,16.60
2018-08-28T22:04:04.359Z,16.60
2018-08-28T22:06:37.714Z,16.50
2018-08-28T22:09:05.448Z,16.40
2018-08-28T22:11:33.306Z,16.40
2018-08-28T22:14:00.903Z,16.40
2018-08-28T22:16:28.482Z,16.30
2018-08-28T22:18:56.813Z,16.30
2018-08-28T22:21:24.388Z,16.30
2018-08-28T22:23:51.935Z,16.30
2018-08-28T22:26:19.587Z,16.30
2018-08-28T22:28:47.170Z,16.20
2018-08-28T22:31:14.812Z,16.20
2018-08-28T22:33:42.427Z,16.20
2018-08-28T22:36:10.035Z,16.10
2018-08-28T22:38:37.626Z,16.10
2018-08-28T22:41:05.409Z,16.10
2018-08-28T22:43:33.364Z,16.10
2018-08-28T22:46:00.949Z,16.10
2018-08-28T22:48:28.545Z,16.10
2018-08-28T22:50:56.245Z,16.10
2018-08-28T22:53:23.907Z,16.10
2018-08-28T22:55:51.459Z,16.00
2018-08-28T22:58:19.089Z,15.90
2018-08-28T23:00:46.679Z,15.80
2018-08-28T23:03:14.313Z,15.70
2018-08-28T23:05:41.901Z,15.70
2018-08-28T23:08:09.487Z,15.60
2018-08-28T23:10:37.331Z,15.60
2018-08-28T23:13:05.097Z,15.50
2018-08-28T23:15:32.629Z,15.50
2018-08-28T23:18:00.209Z,15.40
2018-08-28T23:20:27.778Z,15.50
2018-08-28T23:22:55.387Z,15.40
2018-08-28T23:25:22.952Z,15.40
2018-08-28T23:27:50.547Z,15.40
2018-08-28T23:30:18.105Z,15.40
2018-08-28T23:32:45.666Z,15.40
2018-08-28T23:35:13.245Z,15.40
2018-08-28T23:37:40.871Z,15.40
2018-08-28T23:40:08.482Z,15.40
2018-08-28T23:42:36.107Z,15.40
2018-08-28T23:45:03.948Z,15.40
2018-08-28T23:47:31.578Z,15.30
2018-08-28T23:49:59.139Z,15.30
2018-08-28T23:52:26.707Z,15.30
2018-08-28T23:54:54.297Z,15.30
2018-08-28T23:57:21.847Z,15.20
2018-08-28T23:59:49.395Z,15.20
